sensor_id;sensor_type;location;lat;lon;timestamp;P1;durP1;ratioP1;P2;durP2;ratioP2
15287;SDS011;7745;48.708;9.026;2023-03-23T05:21:51;1.73;;;1.37;;
15287;SDS011;7745;48.708;9.026;2023-03-23T05:24:28;2.53;;;1.40;;
15287;SDS011;7745;48.708;9.026;2023-03-23T05:26:58;3.00;;;1.40;;
15287;SDS011;7745;48.708;9.026;2023-03-23T05:29:25;3.20;;;1.47;;
15287;SDS011;7745;48.708;9.026;2023-03-23T05:31:55;2.43;;;1.40;;
15287;SDS011;7745;48.708;9.026;2023-03-23T05:34:24;7.20;;;1.60;;
15287;SDS011;7745;48.708;9.026;2023-03-23T05:37:03;5.27;;;1.63;;
15287;SDS011;7745;48.708;9.026;2023-03-23T05:39:33;1.80;;;1.30;;
15287;SDS011;7745;48.708;9.026;2023-03-23T05:41:59;2.50;;;1.63;;
15287;SDS011;7745;48.708;9.026;2023-03-23T05:44:26;3.43;;;1.77;;
15287;SDS011;7745;48.708;9.026;2023-03-23T05:46:57;3.43;;;1.60;;
15287;SDS011;7745;48.708;9.026;2023-03-23T05:49:40;4.03;;;1.57;;
15287;SDS011;7745;48.708;9.026;2023-03-23T05:52:27;2.00;;;1.43;;
15287;SDS011;7745;48.708;9.026;2023-03-23T05:55:07;1.90;;;1.47;;
15287;SDS011;7745;48.708;9.026;2023-03-23T05:57:52;2.13;;;1.50;;
15287;SDS011;7745;48.708;9.026;2023-03-23T06:00:42;3.43;;;1.40;;
15287;SDS011;7745;48.708;9.026;2023-03-23T06:03:18;3.37;;;1.97;;
15287;SDS011;7745;48.708;9.026;2023-03-23T06:05:52;2.90;;;1.97;;
15287;SDS011;7745;48.708;9.026;2023-03-23T06:11:37;3.87;;;1.97;;
15287;SDS011;7745;48.708;9.026;2023-03-23T06:14:15;4.47;;;2.10;;
15287;SDS011;7745;48.708;9.026;2023-03-23T06:20:11;4.07;;;1.90;;
15287;SDS011;7745;48.708;9.026;2023-03-23T06:22:54;3.43;;;1.80;;
15287;SDS011;7745;48.708;9.026;2023-03-23T06:25:28;4.27;;;2.00;;
15287;SDS011;7745;48.708;9.026;2023-03-23T06:29:20;3.93;;;1.60;;
15287;SDS011;7745;48.708;9.026;2023-03-23T06:31:17;2.77;;;1.63;;
15287;SDS011;7745;48.708;9.026;2023-03-23T06:33:45;4.30;;;1.90;;
15287;SDS011;7745;48.708;9.026;2023-03-23T06:36:12;3.13;;;1.90;;
15287;SDS011;7745;48.708;9.026;2023-03-23T06:38:39;4.77;;;2.07;;
15287;SDS011;7745;48.708;9.026;2023-03-23T06:41:07;6.63;;;2.20;;
15287;SDS011;7745;48.708;9.026;2023-03-23T06:43:34;5.53;;;1.90;;
15287;SDS011;7745;48.708;9.026;2023-03-23T06:46:04;3.13;;;1.80;;
15287;SDS011;7745;48.708;9.026;2023-03-23T06:48:31;3.13;;;1.67;;
15287;SDS011;7745;48.708;9.026;2023-03-23T06:50:58;3.73;;;1.50;;
15287;SDS011;7745;48.708;9.026;2023-03-23T06:53:24;3.53;;;1.80;;
15287;SDS011;7745;48.708;9.026;2023-03-23T06:55:51;2.77;;;1.60;;
15287;SDS011;7745;48.708;9.026;2023-03-23T06:58:21;4.93;;;1.63;;
15287;SDS011;7745;48.708;9.026;2023-03-23T07:00:53;2.27;;;1.63;;
15287;SDS011;7745;48.708;9.026;2023-03-23T07:03:21;3.40;;;1.70;;
15287;SDS011;7745;48.708;9.026;2023-03-23T07:05:52;5.77;;;1.60;;
15287;SDS011;7745;48.708;9.026;2023-03-23T07:08:19;2.03;;;1.40;;
15287;SDS011;7745;48.708;9.026;2023-03-23T07:10:50;2.87;;;1.50;;
15287;SDS011;7745;48.708;9.026;2023-03-23T08:56:45;2.63;;;2.20;;
15287;SDS011;7745;48.708;9.026;2023-03-23T08:59:46;4.27;;;1.90;;
15287;SDS011;7745;48.708;9.026;2023-03-23T11:27:14;3.20;;;1.70;;
15287;SDS011;7745;48.708;9.026;2023-03-23T11:32:16;3.77;;;2.00;;
15287;SDS011;7745;48.708;9.026;2023-03-23T11:33:17;2.83;;;1.90;;
15287;SDS011;7745;48.708;9.026;2023-03-23T11:39:46;2.20;;;1.50;;
15287;SDS011;7745;48.708;9.026;2023-03-23T11:49:41;4.43;;;2.13;;
15287;SDS011;7745;48.708;9.026;2023-03-23T11:52:19;3.33;;;1.60;;
15287;SDS011;7745;48.708;9.026;2023-03-23T11:57:31;2.17;;;1.77;;
15287;SDS011;7745;48.708;9.026;2023-03-23T13:18:04;1.70;;;1.43;;
15287;SDS011;7745;48.708;9.026;2023-03-23T13:21:13;2.43;;;1.60;;
15287;SDS011;7745;48.708;9.026;2023-03-23T13:24:50;4.03;;;1.57;;
15287;SDS011;7745;48.708;9.026;2023-03-23T13:35:18;2.57;;;1.73;;
15287;SDS011;7745;48.708;9.026;2023-03-23T16:17:19;3.17;;;1.73;;
15287;SDS011;7745;48.708;9.026;2023-03-23T21:01:04;5.30;;;3.07;;
15287;SDS011;7745;48.708;9.026;2023-03-23T21:03:39;4.67;;;2.97;;
